sensor_id;sensor_type;location;lat;lon;timestamp;P1;durP1;ratioP1;P2;durP2;ratioP2
50495;SDS011;38806;51.554;5.704;2024-02-15T00:01:01;28.63;;;15.93;;
50495;SDS011;38806;51.554;5.704;2024-02-15T00:03:01;26.35;;;14.13;;
50495;SDS011;38806;51.554;5.704;2024-02-15T00:05:02;26.45;;;16.48;;
50495;SDS011;38806;51.554;5.704;2024-02-15T00:07:02;27.90;;;15.13;;
50495;SDS011;38806;51.554;5.704;2024-02-15T00:09:02;23.08;;;14.43;;
50495;SDS011;38806;51.554;5.704;2024-02-15T00:11:02;27.85;;;16.63;;
50495;SDS011;38806;51.554;5.704;2024-02-15T00:13:03;30.52;;;15.82;;
50495;SDS011;38806;51.554;5.704;2024-02-15T00:15:05;25.15;;;14.57;;
50495;SDS011;38806;51.554;5.704;2024-02-15T00:17:06;23.70;;;15.38;;
50495;SDS011;38806;51.554;5.704;2024-02-15T00:19:06;23.40;;;16.58;;
50495;SDS011;38806;51.554;5.704;2024-02-15T00:21:07;26.95;;;16.48;;
50495;SDS011;38806;51.554;5.704;2024-02-15T00:23:07;26.67;;;15.10;;
50495;SDS011;38806;51.554;5.704;2024-02-15T00:25:07;27.45;;;16.25;;
50495;SDS011;38806;51.554;5.704;2024-02-15T00:27:09;30.65;;;15.85;;
50495;SDS011;38806;51.554;5.704;2024-02-15T00:29:10;24.05;;;15.43;;
50495;SDS011;38806;51.554;5.704;2024-02-15T00:31:11;31.40;;;16.45;;
50495;SDS011;38806;51.554;5.704;2024-02-15T00:33:11;31.70;;;18.00;;
50495;SDS011;38806;51.554;5.704;2024-02-15T00:35:11;32.40;;;16.63;;
50495;SDS011;38806;51.554;5.704;2024-02-15T00:37:13;26.80;;;17.88;;
50495;SDS011;38806;51.554;5.704;2024-02-15T00:39:13;34.90;;;17.53;;
50495;SDS011;38806;51.554;5.704;2024-02-15T00:41:13;27.10;;;16.15;;
50495;SDS011;38806;51.554;5.704;2024-02-15T00:43:14;30.70;;;18.73;;
50495;SDS011;38806;51.554;5.704;2024-02-15T00:45:14;31.40;;;16.80;;
50495;SDS011;38806;51.554;5.704;2024-02-15T00:47:14;31.65;;;15.80;;
50495;SDS011;38806;51.554;5.704;2024-02-15T00:49:15;29.77;;;16.93;;
50495;SDS011;38806;51.554;5.704;2024-02-15T00:51:15;27.80;;;15.35;;
50495;SDS011;38806;51.554;5.704;2024-02-15T00:53:15;24.52;;;15.10;;
50495;SDS011;38806;51.554;5.704;2024-02-15T00:55:16;30.90;;;16.15;;
50495;SDS011;38806;51.554;5.704;2024-02-15T00:57:16;25.38;;;14.52;;
50495;SDS011;38806;51.554;5.704;2024-02-15T00:59:17;25.83;;;15.02;;
50495;SDS011;38806;51.554;5.704;2024-02-15T01:01:18;28.17;;;14.10;;
50495;SDS011;38806;51.554;5.704;2024-02-15T01:03:18;24.88;;;13.13;;
50495;SDS011;38806;51.554;5.704;2024-02-15T01:05:19;24.88;;;14.68;;
50495;SDS011;38806;51.554;5.704;2024-02-15T01:07:20;25.00;;;13.93;;
50495;SDS011;38806;51.554;5.704;2024-02-15T01:09:23;23.40;;;12.73;;
50495;SDS011;38806;51.554;5.704;2024-02-15T01:11:23;28.67;;;15.50;;
50495;SDS011;38806;51.554;5.704;2024-02-15T01:13:24;25.13;;;14.50;;
50495;SDS011;38806;51.554;5.704;2024-02-15T01:15:25;24.30;;;15.35;;
50495;SDS011;38806;51.554;5.704;2024-02-15T01:17:25;27.27;;;14.27;;
50495;SDS011;38806;51.554;5.704;2024-02-15T01:19:25;22.50;;;13.70;;
50495;SDS011;38806;51.554;5.704;2024-02-15T01:21:26;25.38;;;12.82;;
50495;SDS011;38806;51.554;5.704;2024-02-15T01:23:26;25.90;;;12.85;;
50495;SDS011;38806;51.554;5.704;2024-02-15T01:25:26;27.23;;;12.50;;
50495;SDS011;38806;51.554;5.704;2024-02-15T01:27:28;21.50;;;12.57;;
50495;SDS011;38806;51.554;5.704;2024-02-15T01:29:30;24.38;;;13.18;;
50495;SDS011;38806;51.554;5.704;2024-02-15T01:31:30;24.87;;;12.80;;
50495;SDS011;38806;51.554;5.704;2024-02-15T01:33:30;24.92;;;11.65;;
50495;SDS011;38806;51.554;5.704;2024-02-15T01:35:31;29.77;;;11.98;;
50495;SDS011;38806;51.554;5.704;2024-02-15T01:37:32;22.97;;;11.10;;
50495;SDS011;38806;51.554;5.704;2024-02-15T01:39:32;27.10;;;12.00;;
50495;SDS011;38806;51.554;5.704;2024-02-15T01:41:32;20.83;;;11.07;;
50495;SDS011;38806;51.554;5.704;2024-02-15T01:43:32;25.30;;;11.98;;
50495;SDS011;38806;51.554;5.704;2024-02-15T01:45:32;21.07;;;10.73;;
50495;SDS011;38806;51.554;5.704;2024-02-15T01:47:33;22.38;;;12.15;;
50495;SDS011;38806;51.554;5.704;2024-02-15T01:49:33;21.02;;;10.68;;
50495;SDS011;38806;51.554;5.704;2024-02-15T01:51:33;23.05;;;12.68;;
50495;SDS011;38806;51.554;5.704;2024-02-15T01:53:35;22.27;;;9.93;;
50495;SDS011;38806;51.554;5.704;2024-02-15T01:55:37;23.58;;;10.80;;
50495;SDS011;38806;51.554;5.704;2024-02-15T01:57:37;19.65;;;9.88;;
50495;SDS011;38806;51.554;5.704;2024-02-15T01:59:38;19.30;;;10.30;;
50495;SDS011;38806;51.554;5.704;2024-02-15T02:01:38;20.42;;;10.40;;
50495;SDS011;38806;51.554;5.704;2024-02-15T02:03:38;21.02;;;9.77;;
50495;SDS011;38806;51.554;5.704;2024-02-15T02:05:39;18.90;;;10.43;;
50495;SDS011;38806;51.554;5.704;2024-02-15T02:07:40;20.77;;;11.10;;
50495;SDS011;38806;51.554;5.704;2024-02-15T02:09:40;20.67;;;9.82;;
50495;SDS011;38806;51.554;5.704;2024-02-15T02:11:44;25.15;;;9.68;;
50495;SDS011;38806;51.554;5.704;2024-02-15T02:13:46;19.50;;;9.75;;
50495;SDS011;38806;51.554;5.704;2024-02-15T02:15:46;23.95;;;9.48;;
50495;SDS011;38806;51.554;5.704;2024-02-15T02:17:49;20.63;;;11.43;;
50495;SDS011;38806;51.554;5.704;2024-02-15T02:19:53;28.67;;;9.70;;
50495;SDS011;38806;51.554;5.704;2024-02-15T02:21:53;18.73;;;9.07;;
50495;SDS011;38806;51.554;5.704;2024-02-15T02:23:57;19.95;;;9.35;;
50495;SDS011;38806;51.554;5.704;2024-02-15T02:25:58;16.48;;;8.70;;
50495;SDS011;38806;51.554;5.704;2024-02-15T02:27:58;18.55;;;8.30;;
50495;SDS011;38806;51.554;5.704;2024-02-15T02:29:59;14.38;;;8.65;;
50495;SDS011;38806;51.554;5.704;2024-02-15T02:31:59;17.85;;;8.90;;
50495;SDS011;38806;51.554;5.704;2024-02-15T02:33:59;18.60;;;8.13;;
50495;SDS011;38806;51.554;5.704;2024-02-15T02:36:00;24.02;;;8.10;;
50495;SDS011;38806;51.554;5.704;2024-02-15T02:38:01;21.40;;;9.02;;
50495;SDS011;38806;51.554;5.704;2024-02-15T02:40:03;16.33;;;7.55;;
50495;SDS011;38806;51.554;5.704;2024-02-15T02:42:03;13.95;;;8.15;;
50495;SDS011;38806;51.554;5.704;2024-02-15T02:44:03;17.33;;;8.10;;
50495;SDS011;38806;51.554;5.704;2024-02-15T02:46:04;20.98;;;9.15;;
50495;SDS011;38806;51.554;5.704;2024-02-15T02:48:06;20.63;;;8.63;;
50495;SDS011;38806;51.554;5.704;2024-02-15T02:50:06;13.82;;;7.43;;
50495;SDS011;38806;51.554;5.704;2024-02-15T02:52:08;14.93;;;8.27;;
50495;SDS011;38806;51.554;5.704;2024-02-15T02:54:08;12.32;;;7.18;;
50495;SDS011;38806;51.554;5.704;2024-02-15T02:56:08;21.17;;;8.65;;
50495;SDS011;38806;51.554;5.704;2024-02-15T02:58:09;22.15;;;9.02;;
50495;SDS011;38806;51.554;5.704;2024-02-15T03:00:10;15.15;;;6.95;;
50495;SDS011;38806;51.554;5.704;2024-02-15T03:02:12;17.05;;;9.13;;
50495;SDS011;38806;51.554;5.704;2024-02-15T03:04:14;13.98;;;7.93;;
50495;SDS011;38806;51.554;5.704;2024-02-15T03:06:16;20.60;;;7.43;;
50495;SDS011;38806;51.554;5.704;2024-02-15T03:08:17;19.40;;;7.50;;
50495;SDS011;38806;51.554;5.704;2024-02-15T03:10:17;17.23;;;8.00;;
50495;SDS011;38806;51.554;5.704;2024-02-15T03:12:18;17.60;;;7.95;;
50495;SDS011;38806;51.554;5.704;2024-02-15T03:14:18;18.17;;;7.82;;
50495;SDS011;38806;51.554;5.704;2024-02-15T03:16:21;19.85;;;7.50;;
50495;SDS011;38806;51.554;5.704;2024-02-15T03:18:22;22.67;;;9.25;;
50495;SDS011;38806;51.554;5.704;2024-02-15T03:20:24;15.48;;;8.05;;
50495;SDS011;38806;51.554;5.704;2024-02-15T03:22:24;18.35;;;7.07;;
50495;SDS011;38806;51.554;5.704;2024-02-15T03:24:25;13.25;;;6.63;;
50495;SDS011;38806;51.554;5.704;2024-02-15T03:26:29;15.90;;;7.63;;
50495;SDS011;38806;51.554;5.704;2024-02-15T03:28:30;16.25;;;7.32;;
50495;SDS011;38806;51.554;5.704;2024-02-15T03:30:31;13.93;;;8.23;;
50495;SDS011;38806;51.554;5.704;2024-02-15T03:32:31;18.73;;;10.00;;
50495;SDS011;38806;51.554;5.704;2024-02-15T03:34:32;20.08;;;7.95;;
50495;SDS011;38806;51.554;5.704;2024-02-15T03:36:32;20.50;;;8.17;;
50495;SDS011;38806;51.554;5.704;2024-02-15T03:38:33;16.27;;;8.38;;
50495;SDS011;38806;51.554;5.704;2024-02-15T03:40:33;12.93;;;6.97;;
50495;SDS011;38806;51.554;5.704;2024-02-15T03:42:34;20.90;;;7.22;;
50495;SDS011;38806;51.554;5.704;2024-02-15T03:44:37;15.23;;;6.53;;
50495;SDS011;38806;51.554;5.704;2024-02-15T03:46:38;16.10;;;7.47;;
50495;SDS011;38806;51.554;5.704;2024-02-15T03:48:38;20.00;;;7.90;;
50495;SDS011;38806;51.554;5.704;2024-02-15T03:50:39;18.55;;;7.90;;
50495;SDS011;38806;51.554;5.704;2024-02-15T03:52:39;16.55;;;7.15;;
50495;SDS011;38806;51.554;5.704;2024-02-15T03:54:41;11.07;;;6.40;;
50495;SDS011;38806;51.554;5.704;2024-02-15T03:56:49;18.88;;;6.95;;
50495;SDS011;38806;51.554;5.704;2024-02-15T03:58:52;20.92;;;7.13;;
50495;SDS011;38806;51.554;5.704;2024-02-15T04:00:53;15.20;;;7.05;;
50495;SDS011;38806;51.554;5.704;2024-02-15T04:02:53;18.60;;;7.00;;
50495;SDS011;38806;51.554;5.704;2024-02-15T04:04:53;13.55;;;6.18;;
50495;SDS011;38806;51.554;5.704;2024-02-15T04:06:55;15.23;;;6.85;;
50495;SDS011;38806;51.554;5.704;2024-02-15T04:08:55;17.45;;;6.60;;
50495;SDS011;38806;51.554;5.704;2024-02-15T04:10:55;23.17;;;7.33;;
50495;SDS011;38806;51.554;5.704;2024-02-15T04:12:57;18.85;;;7.35;;
50495;SDS011;38806;51.554;5.704;2024-02-15T04:15:00;16.85;;;7.07;;
50495;SDS011;38806;51.554;5.704;2024-02-15T04:17:05;17.15;;;5.40;;
50495;SDS011;38806;51.554;5.704;2024-02-15T04:19:05;10.15;;;5.07;;
50495;SDS011;38806;51.554;5.704;2024-02-15T04:21:05;10.63;;;5.30;;
50495;SDS011;38806;51.554;5.704;2024-02-15T04:23:07;13.52;;;4.82;;
50495;SDS011;38806;51.554;5.704;2024-02-15T04:25:07;13.50;;;5.22;;
50495;SDS011;38806;51.554;5.704;2024-02-15T04:27:10;12.95;;;5.32;;
50495;SDS011;38806;51.554;5.704;2024-02-15T04:29:14;13.55;;;5.47;;
50495;SDS011;38806;51.554;5.704;2024-02-15T04:31:14;18.13;;;4.75;;
50495;SDS011;38806;51.554;5.704;2024-02-15T04:33:15;14.40;;;5.15;;
50495;SDS011;38806;51.554;5.704;2024-02-15T04:35:16;13.70;;;5.30;;
50495;SDS011;38806;51.554;5.704;2024-02-15T04:37:16;11.30;;;4.47;;
50495;SDS011;38806;51.554;5.704;2024-02-15T04:39:18;35.35;;;5.10;;
50495;SDS011;38806;51.554;5.704;2024-02-15T04:41:24;13.10;;;6.32;;
50495;SDS011;38806;51.554;5.704;2024-02-15T04:43:24;8.85;;;5.15;;
50495;SDS011;38806;51.554;5.704;2024-02-15T04:45:24;11.27;;;4.53;;
50495;SDS011;38806;51.554;5.704;2024-02-15T04:47:26;9.43;;;3.85;;
50495;SDS011;38806;51.554;5.704;2024-02-15T04:49:26;11.70;;;6.28;;
50495;SDS011;38806;51.554;5.704;2024-02-15T04:51:29;11.48;;;5.07;;
50495;SDS011;38806;51.554;5.704;2024-02-15T04:53:29;7.10;;;4.40;;
50495;SDS011;38806;51.554;5.704;2024-02-15T04:55:30;12.55;;;4.68;;
50495;SDS011;38806;51.554;5.704;2024-02-15T04:57:31;14.15;;;4.82;;
50495;SDS011;38806;51.554;5.704;2024-02-15T04:59:33;12.43;;;4.13;;
50495;SDS011;38806;51.554;5.704;2024-02-15T05:01:33;11.52;;;4.13;;
50495;SDS011;38806;51.554;5.704;2024-02-15T05:03:33;13.00;;;5.33;;
50495;SDS011;38806;51.554;5.704;2024-02-15T05:05:35;7.63;;;3.78;;
50495;SDS011;38806;51.554;5.704;2024-02-15T05:07:35;8.93;;;3.63;;
50495;SDS011;38806;51.554;5.704;2024-02-15T05:09:39;9.23;;;3.55;;
50495;SDS011;38806;51.554;5.704;2024-02-15T05:11:40;7.75;;;3.70;;
50495;SDS011;38806;51.554;5.704;2024-02-15T05:13:47;10.18;;;3.70;;
50495;SDS011;38806;51.554;5.704;2024-02-15T05:15:47;10.85;;;3.45;;
50495;SDS011;38806;51.554;5.704;2024-02-15T05:17:47;11.03;;;4.03;;
50495;SDS011;38806;51.554;5.704;2024-02-15T05:19:49;8.05;;;3.40;;
50495;SDS011;38806;51.554;5.704;2024-02-15T05:21:49;11.05;;;3.65;;
50495;SDS011;38806;51.554;5.704;2024-02-15T05:23:49;15.73;;;4.57;;
50495;SDS011;38806;51.554;5.704;2024-02-15T05:25:51;11.30;;;3.28;;
50495;SDS011;38806;51.554;5.704;2024-02-15T05:27:54;14.95;;;7.80;;
50495;SDS011;38806;51.554;5.704;2024-02-15T05:29:54;13.25;;;4.57;;
50495;SDS011;38806;51.554;5.704;2024-02-15T05:31:54;16.73;;;3.90;;
50495;SDS011;38806;51.554;5.704;2024-02-15T05:33:56;8.85;;;4.10;;
50495;SDS011;38806;51.554;5.704;2024-02-15T05:35:57;14.88;;;4.30;;
50495;SDS011;38806;51.554;5.704;2024-02-15T05:37:58;10.57;;;3.83;;
50495;SDS011;38806;51.554;5.704;2024-02-15T05:39:58;10.43;;;4.05;;
50495;SDS011;38806;51.554;5.704;2024-02-15T05:41:58;8.15;;;3.47;;
50495;SDS011;38806;51.554;5.704;2024-02-15T05:44:01;7.72;;;3.65;;
50495;SDS011;38806;51.554;5.704;2024-02-15T05:46:01;9.52;;;3.60;;
50495;SDS011;38806;51.554;5.704;2024-02-15T05:48:03;9.85;;;4.10;;
50495;SDS011;38806;51.554;5.704;2024-02-15T05:50:06;11.95;;;4.38;;
50495;SDS011;38806;51.554;5.704;2024-02-15T05:52:07;9.38;;;3.70;;
50495;SDS011;38806;51.554;5.704;2024-02-15T05:54:08;8.55;;;4.10;;
50495;SDS011;38806;51.554;5.704;2024-02-15T05:56:09;11.50;;;4.47;;
50495;SDS011;38806;51.554;5.704;2024-02-15T05:58:12;8.88;;;3.33;;
50495;SDS011;38806;51.554;5.704;2024-02-15T06:00:13;10.77;;;4.03;;
50495;SDS011;38806;51.554;5.704;2024-02-15T06:02:15;16.65;;;5.50;;
50495;SDS011;38806;51.554;5.704;2024-02-15T06:04:15;7.28;;;4.10;;
50495;SDS011;38806;51.554;5.704;2024-02-15T06:06:16;8.98;;;3.72;;
50495;SDS011;38806;51.554;5.704;2024-02-15T06:08:16;7.85;;;3.47;;
50495;SDS011;38806;51.554;5.704;2024-02-15T06:10:17;11.77;;;4.25;;
50495;SDS011;38806;51.554;5.704;2024-02-15T06:12:18;6.73;;;3.20;;
50495;SDS011;38806;51.554;5.704;2024-02-15T06:14:18;11.00;;;3.85;;
50495;SDS011;38806;51.554;5.704;2024-02-15T06:16:18;9.63;;;4.03;;
50495;SDS011;38806;51.554;5.704;2024-02-15T06:18:19;10.52;;;4.10;;
50495;SDS011;38806;51.554;5.704;2024-02-15T06:20:21;13.63;;;4.03;;
50495;SDS011;38806;51.554;5.704;2024-02-15T06:22:22;12.75;;;3.22;;
50495;SDS011;38806;51.554;5.704;2024-02-15T06:24:22;8.40;;;4.07;;
50495;SDS011;38806;51.554;5.704;2024-02-15T06:26:24;15.25;;;3.75;;
50495;SDS011;38806;51.554;5.704;2024-02-15T06:28:25;10.35;;;4.78;;
50495;SDS011;38806;51.554;5.704;2024-02-15T06:30:44;11.93;;;5.65;;
50495;SDS011;38806;51.554;5.704;2024-02-15T06:33:03;10.18;;;4.43;;
50495;SDS011;38806;51.554;5.704;2024-02-15T06:35:21;13.55;;;3.58;;
50495;SDS011;38806;51.554;5.704;2024-02-15T06:37:40;10.35;;;3.38;;
50495;SDS011;38806;51.554;5.704;2024-02-15T06:39:59;10.23;;;4.25;;
50495;SDS011;38806;51.554;5.704;2024-02-15T06:42:00;9.50;;;3.97;;
50495;SDS011;38806;51.554;5.704;2024-02-15T06:44:01;10.00;;;4.47;;
50495;SDS011;38806;51.554;5.704;2024-02-15T06:46:02;11.48;;;4.18;;
50495;SDS011;38806;51.554;5.704;2024-02-15T06:48:02;13.85;;;4.60;;
50495;SDS011;38806;51.554;5.704;2024-02-15T06:50:03;12.00;;;4.05;;
50495;SDS011;38806;51.554;5.704;2024-02-15T06:52:03;6.95;;;4.10;;
50495;SDS011;38806;51.554;5.704;2024-02-15T06:54:03;7.85;;;4.45;;
50495;SDS011;38806;51.554;5.704;2024-02-15T06:56:04;16.80;;;3.47;;
50495;SDS011;38806;51.554;5.704;2024-02-15T06:58:04;13.38;;;3.58;;
50495;SDS011;38806;51.554;5.704;2024-02-15T07:00:06;14.13;;;5.60;;
50495;SDS011;38806;51.554;5.704;2024-02-15T07:02:07;12.77;;;3.72;;
50495;SDS011;38806;51.554;5.704;2024-02-15T07:04:08;8.85;;;5.15;;
50495;SDS011;38806;51.554;5.704;2024-02-15T07:06:10;11.15;;;4.22;;
50495;SDS011;38806;51.554;5.704;2024-02-15T07:08:10;13.25;;;4.78;;
50495;SDS011;38806;51.554;5.704;2024-02-15T07:10:12;9.52;;;4.90;;
50495;SDS011;38806;51.554;5.704;2024-02-15T07:12:13;11.13;;;3.80;;
50495;SDS011;38806;51.554;5.704;2024-02-15T07:14:15;13.32;;;5.15;;
50495;SDS011;38806;51.554;5.704;2024-02-15T07:16:16;8.35;;;3.45;;
50495;SDS011;38806;51.554;5.704;2024-02-15T07:18:16;15.88;;;6.10;;
50495;SDS011;38806;51.554;5.704;2024-02-15T07:20:18;11.63;;;5.50;;
50495;SDS011;38806;51.554;5.704;2024-02-15T07:22:19;10.35;;;4.05;;
50495;SDS011;38806;51.554;5.704;2024-02-15T07:24:19;9.73;;;4.22;;
50495;SDS011;38806;51.554;5.704;2024-02-15T07:26:20;10.30;;;4.25;;
50495;SDS011;38806;51.554;5.704;2024-02-15T07:28:20;10.18;;;3.65;;
50495;SDS011;38806;51.554;5.704;2024-02-15T07:30:20;9.95;;;4.25;;
50495;SDS011;38806;51.554;5.704;2024-02-15T07:32:21;12.63;;;4.20;;
50495;SDS011;38806;51.554;5.704;2024-02-15T07:34:21;9.43;;;3.20;;
50495;SDS011;38806;51.554;5.704;2024-02-15T07:36:22;6.85;;;3.92;;
50495;SDS011;38806;51.554;5.704;2024-02-15T07:38:23;8.85;;;3.63;;
50495;SDS011;38806;51.554;5.704;2024-02-15T07:40:25;10.38;;;3.83;;
50495;SDS011;38806;51.554;5.704;2024-02-15T07:42:28;8.93;;;3.42;;
50495;SDS011;38806;51.554;5.704;2024-02-15T07:44:28;10.18;;;3.13;;
50495;SDS011;38806;51.554;5.704;2024-02-15T07:46:30;9.40;;;3.95;;
50495;SDS011;38806;51.554;5.704;2024-02-15T07:48:30;10.38;;;4.70;;
50495;SDS011;38806;51.554;5.704;2024-02-15T07:50:31;9.23;;;4.53;;
50495;SDS011;38806;51.554;5.704;2024-02-15T07:52:32;7.40;;;3.45;;
50495;SDS011;38806;51.554;5.704;2024-02-15T07:54:33;6.63;;;3.05;;
50495;SDS011;38806;51.554;5.704;2024-02-15T07:56:33;8.05;;;3.78;;
50495;SDS011;38806;51.554;5.704;2024-02-15T07:58:35;9.95;;;4.40;;
50495;SDS011;38806;51.554;5.704;2024-02-15T08:00:37;7.22;;;3.45;;
50495;SDS011;38806;51.554;5.704;2024-02-15T08:02:38;9.30;;;3.53;;
50495;SDS011;38806;51.554;5.704;2024-02-15T08:04:40;7.68;;;4.22;;
50495;SDS011;38806;51.554;5.704;2024-02-15T08:06:44;11.18;;;4.82;;
50495;SDS011;38806;51.554;5.704;2024-02-15T08:08:45;11.13;;;4.03;;
50495;SDS011;38806;51.554;5.704;2024-02-15T08:10:48;10.15;;;3.38;;
50495;SDS011;38806;51.554;5.704;2024-02-15T08:12:51;12.27;;;3.92;;
50495;SDS011;38806;51.554;5.704;2024-02-15T08:14:52;11.30;;;4.50;;
50495;SDS011;38806;51.554;5.704;2024-02-15T08:16:53;7.65;;;4.88;;
50495;SDS011;38806;51.554;5.704;2024-02-15T08:18:53;6.05;;;3.47;;
50495;SDS011;38806;51.554;5.704;2024-02-15T08:20:57;13.45;;;3.88;;
50495;SDS011;38806;51.554;5.704;2024-02-15T08:22:57;8.23;;;4.57;;
50495;SDS011;38806;51.554;5.704;2024-02-15T08:24:59;16.95;;;4.05;;
50495;SDS011;38806;51.554;5.704;2024-02-15T08:26:59;12.18;;;3.92;;
50495;SDS011;38806;51.554;5.704;2024-02-15T08:28:59;9.37;;;3.40;;
50495;SDS011;38806;51.554;5.704;2024-02-15T08:30:59;7.90;;;3.90;;
50495;SDS011;38806;51.554;5.704;2024-02-15T08:33:00;7.03;;;3.47;;
50495;SDS011;38806;51.554;5.704;2024-02-15T08:35:00;6.80;;;3.50;;
50495;SDS011;38806;51.554;5.704;2024-02-15T08:37:00;9.77;;;3.70;;
50495;SDS011;38806;51.554;5.704;2024-02-15T08:39:02;8.23;;;3.55;;
50495;SDS011;38806;51.554;5.704;2024-02-15T08:41:04;8.43;;;3.53;;
50495;SDS011;38806;51.554;5.704;2024-02-15T08:43:06;9.20;;;3.67;;
50495;SDS011;38806;51.554;5.704;2024-02-15T08:45:07;11.18;;;3.60;;
50495;SDS011;38806;51.554;5.704;2024-02-15T08:47:10;8.05;;;3.85;;
50495;SDS011;38806;51.554;5.704;2024-02-15T08:49:10;11.17;;;3.03;;
50495;SDS011;38806;51.554;5.704;2024-02-15T08:51:13;9.85;;;3.35;;
50495;SDS011;38806;51.554;5.704;2024-02-15T08:53:13;8.63;;;2.97;;
50495;SDS011;38806;51.554;5.704;2024-02-15T08:55:15;9.93;;;4.38;;
50495;SDS011;38806;51.554;5.704;2024-02-15T08:57:16;11.85;;;3.63;;
50495;SDS011;38806;51.554;5.704;2024-02-15T08:59:19;12.40;;;3.63;;
50495;SDS011;38806;51.554;5.704;2024-02-15T09:01:19;7.53;;;4.28;;
50495;SDS011;38806;51.554;5.704;2024-02-15T09:03:19;9.15;;;3.92;;
50495;SDS011;38806;51.554;5.704;2024-02-15T09:05:19;7.00;;;3.28;;
50495;SDS011;38806;51.554;5.704;2024-02-15T09:07:22;7.93;;;4.10;;
50495;SDS011;38806;51.554;5.704;2024-02-15T09:09:22;9.03;;;3.07;;
50495;SDS011;38806;51.554;5.704;2024-02-15T09:11:22;8.83;;;2.47;;
50495;SDS011;38806;51.554;5.704;2024-02-15T09:13:23;16.33;;;4.15;;
50495;SDS011;38806;51.554;5.704;2024-02-15T09:15:23;5.90;;;2.75;;
50495;SDS011;38806;51.554;5.704;2024-02-15T09:17:23;7.70;;;2.90;;
50495;SDS011;38806;51.554;5.704;2024-02-15T09:19:26;8.23;;;3.38;;
50495;SDS011;38806;51.554;5.704;2024-02-15T09:21:26;7.78;;;2.75;;
50495;SDS011;38806;51.554;5.704;2024-02-15T09:23:28;6.38;;;2.78;;
50495;SDS011;38806;51.554;5.704;2024-02-15T09:25:28;5.93;;;2.57;;
50495;SDS011;38806;51.554;5.704;2024-02-15T09:27:29;5.75;;;3.30;;
50495;SDS011;38806;51.554;5.704;2024-02-15T09:29:29;7.97;;;2.60;;
50495;SDS011;38806;51.554;5.704;2024-02-15T09:31:35;9.38;;;2.60;;
50495;SDS011;38806;51.554;5.704;2024-02-15T09:33:36;8.75;;;3.25;;
50495;SDS011;38806;51.554;5.704;2024-02-15T09:35:36;7.57;;;2.80;;
50495;SDS011;38806;51.554;5.704;2024-02-15T09:37:42;7.95;;;3.28;;
50495;SDS011;38806;51.554;5.704;2024-02-15T09:39:43;8.50;;;3.03;;
50495;SDS011;38806;51.554;5.704;2024-02-15T09:41:44;8.25;;;3.65;;
50495;SDS011;38806;51.554;5.704;2024-02-15T09:43:44;6.50;;;3.35;;
50495;SDS011;38806;51.554;5.704;2024-02-15T09:45:44;8.50;;;3.20;;
50495;SDS011;38806;51.554;5.704;2024-02-15T09:47:46;8.55;;;3.63;;
50495;SDS011;38806;51.554;5.704;2024-02-15T09:49:49;7.97;;;3.80;;
50495;SDS011;38806;51.554;5.704;2024-02-15T09:51:49;7.82;;;3.40;;
50495;SDS011;38806;51.554;5.704;2024-02-15T09:53:50;5.72;;;2.47;;
50495;SDS011;38806;51.554;5.704;2024-02-15T09:55:50;6.10;;;3.33;;
50495;SDS011;38806;51.554;5.704;2024-02-15T09:57:51;5.63;;;2.60;;
50495;SDS011;38806;51.554;5.704;2024-02-15T09:59:51;5.88;;;2.95;;
50495;SDS011;38806;51.554;5.704;2024-02-15T10:01:52;7.82;;;3.28;;
50495;SDS011;38806;51.554;5.704;2024-02-15T10:03:56;5.63;;;3.15;;
50495;SDS011;38806;51.554;5.704;2024-02-15T10:05:59;10.20;;;2.90;;
50495;SDS011;38806;51.554;5.704;2024-02-15T10:07:59;6.50;;;2.67;;
50495;SDS011;38806;51.554;5.704;2024-02-15T10:10:13;4.72;;;1.80;;
50495;SDS011;38806;51.554;5.704;2024-02-15T10:12:14;5.47;;;1.77;;
50495;SDS011;38806;51.554;5.704;2024-02-15T10:14:14;8.33;;;2.80;;
50495;SDS011;38806;51.554;5.704;2024-02-15T10:16:18;5.85;;;2.58;;
50495;SDS011;38806;51.554;5.704;2024-02-15T10:18:19;6.20;;;2.00;;
50495;SDS011;38806;51.554;5.704;2024-02-15T10:20:20;5.97;;;2.33;;
50495;SDS011;38806;51.554;5.704;2024-02-15T10:22:21;7.47;;;1.85;;
50495;SDS011;38806;51.554;5.704;2024-02-15T10:24:23;7.03;;;2.15;;
50495;SDS011;38806;51.554;5.704;2024-02-15T10:26:27;7.40;;;1.90;;
50495;SDS011;38806;51.554;5.704;2024-02-15T10:28:29;8.57;;;2.05;;
50495;SDS011;38806;51.554;5.704;2024-02-15T10:30:29;6.43;;;2.17;;
50495;SDS011;38806;51.554;5.704;2024-02-15T10:32:35;6.40;;;1.77;;
50495;SDS011;38806;51.554;5.704;2024-02-15T10:34:43;8.90;;;2.33;;
50495;SDS011;38806;51.554;5.704;2024-02-15T10:38:45;8.02;;;1.88;;
50495;SDS011;38806;51.554;5.704;2024-02-15T10:40:45;8.87;;;2.30;;
50495;SDS011;38806;51.554;5.704;2024-02-15T10:42:46;3.78;;;1.92;;
50495;SDS011;38806;51.554;5.704;2024-02-15T10:44:47;7.60;;;2.33;;
50495;SDS011;38806;51.554;5.704;2024-02-15T10:46:49;5.30;;;1.50;;
50495;SDS011;38806;51.554;5.704;2024-02-15T10:48:52;4.53;;;1.85;;
50495;SDS011;38806;51.554;5.704;2024-02-15T10:50:53;4.43;;;2.00;;
50495;SDS011;38806;51.554;5.704;2024-02-15T10:52:54;5.97;;;2.00;;
50495;SDS011;38806;51.554;5.704;2024-02-15T10:55:03;5.13;;;1.95;;
50495;SDS011;38806;51.554;5.704;2024-02-15T10:57:03;10.13;;;2.22;;
50495;SDS011;38806;51.554;5.704;2024-02-15T11:01:07;7.72;;;1.85;;
50495;SDS011;38806;51.554;5.704;2024-02-15T11:03:10;9.88;;;2.10;;
50495;SDS011;38806;51.554;5.704;2024-02-15T11:05:13;5.47;;;1.77;;
50495;SDS011;38806;51.554;5.704;2024-02-15T11:07:14;6.25;;;2.50;;
50495;SDS011;38806;51.554;5.704;2024-02-15T11:09:15;5.15;;;2.17;;
50495;SDS011;38806;51.554;5.704;2024-02-15T11:11:15;5.00;;;2.10;;
50495;SDS011;38806;51.554;5.704;2024-02-15T11:13:15;4.78;;;1.63;;
50495;SDS011;38806;51.554;5.704;2024-02-15T11:21:53;5.70;;;2.43;;
50495;SDS011;38806;51.554;5.704;2024-02-15T11:23:53;8.68;;;2.25;;
50495;SDS011;38806;51.554;5.704;2024-02-15T11:25:54;6.32;;;2.45;;
50495;SDS011;38806;51.554;5.704;2024-02-15T11:27:56;6.68;;;2.20;;
50495;SDS011;38806;51.554;5.704;2024-02-15T11:30:00;5.18;;;2.00;;
50495;SDS011;38806;51.554;5.704;2024-02-15T11:32:10;4.68;;;1.55;;
50495;SDS011;38806;51.554;5.704;2024-02-15T11:34:41;5.15;;;2.05;;
50495;SDS011;38806;51.554;5.704;2024-02-15T11:36:41;5.10;;;1.80;;
50495;SDS011;38806;51.554;5.704;2024-02-15T11:38:42;4.35;;;1.70;;
50495;SDS011;38806;51.554;5.704;2024-02-15T11:43:01;4.85;;;1.55;;
50495;SDS011;38806;51.554;5.704;2024-02-15T11:45:05;4.25;;;1.50;;
50495;SDS011;38806;51.554;5.704;2024-02-15T11:47:05;4.70;;;1.98;;
50495;SDS011;38806;51.554;5.704;2024-02-15T11:49:06;5.90;;;2.03;;
50495;SDS011;38806;51.554;5.704;2024-02-15T11:51:07;4.13;;;1.85;;
50495;SDS011;38806;51.554;5.704;2024-02-15T11:53:11;7.32;;;2.05;;
50495;SDS011;38806;51.554;5.704;2024-02-15T11:55:11;8.03;;;1.80;;
50495;SDS011;38806;51.554;5.704;2024-02-15T11:57:13;4.20;;;1.67;;
50495;SDS011;38806;51.554;5.704;2024-02-15T11:59:22;4.80;;;2.10;;
50495;SDS011;38806;51.554;5.704;2024-02-15T12:01:42;6.20;;;1.48;;
50495;SDS011;38806;51.554;5.704;2024-02-15T12:04:01;5.78;;;2.55;;
50495;SDS011;38806;51.554;5.704;2024-02-15T12:06:20;6.60;;;1.35;;
50495;SDS011;38806;51.554;5.704;2024-02-15T12:08:39;3.55;;;1.70;;
50495;SDS011;38806;51.554;5.704;2024-02-15T12:10:59;3.65;;;1.85;;
50495;SDS011;38806;51.554;5.704;2024-02-15T12:13:18;9.73;;;1.50;;
50495;SDS011;38806;51.554;5.704;2024-02-15T12:15:37;3.92;;;1.95;;
50495;SDS011;38806;51.554;5.704;2024-02-15T12:18:12;3.15;;;1.27;;
50495;SDS011;38806;51.554;5.704;2024-02-15T12:20:31;4.07;;;1.65;;